sensor_id;sensor_type;location;lat;lon;timestamp;P1;durP1;ratioP1;P2;durP2;ratioP2
2458;SDS011;1241;50.920;6.936;2023-04-15T00:01:23;8.00;;;6.75;;
2458;SDS011;1241;50.920;6.936;2023-04-15T00:03:50;9.23;;;6.65;;
2458;SDS011;1241;50.920;6.936;2023-04-15T00:06:19;8.52;;;6.10;;
2458;SDS011;1241;50.920;6.936;2023-04-15T00:08:46;9.38;;;7.00;;
2458;SDS011;1241;50.920;6.936;2023-04-15T00:11:13;7.45;;;5.78;;
2458;SDS011;1241;50.920;6.936;2023-04-15T00:13:39;5.95;;;5.32;;
2458;SDS011;1241;50.920;6.936;2023-04-15T00:16:05;7.60;;;6.10;;
2458;SDS011;1241;50.920;6.936;2023-04-15T00:18:32;7.05;;;5.00;;
2458;SDS011;1241;50.920;6.936;2023-04-15T00:20:58;5.60;;;4.70;;
2458;SDS011;1241;50.920;6.936;2023-04-15T00:23:24;5.45;;;4.95;;
2458;SDS011;1241;50.920;6.936;2023-04-15T00:25:50;6.88;;;5.82;;
2458;SDS011;1241;50.920;6.936;2023-04-15T00:28:16;5.38;;;4.72;;
2458;SDS011;1241;50.920;6.936;2023-04-15T00:30:42;5.60;;;4.80;;
2458;SDS011;1241;50.920;6.936;2023-04-15T00:33:09;7.57;;;4.88;;
2458;SDS011;1241;50.920;6.936;2023-04-15T00:35:35;6.80;;;4.90;;
2458;SDS011;1241;50.920;6.936;2023-04-15T00:38:02;6.22;;;5.10;;
2458;SDS011;1241;50.920;6.936;2023-04-15T00:40:29;7.57;;;6.47;;
2458;SDS011;1241;50.920;6.936;2023-04-15T00:42:55;12.65;;;11.35;;
2458;SDS011;1241;50.920;6.936;2023-04-15T00:45:20;5.72;;;5.03;;
2458;SDS011;1241;50.920;6.936;2023-04-15T00:47:46;7.07;;;6.00;;
2458;SDS011;1241;50.920;6.936;2023-04-15T00:50:13;6.40;;;5.00;;
2458;SDS011;1241;50.920;6.936;2023-04-15T00:52:39;8.05;;;5.22;;
2458;SDS011;1241;50.920;6.936;2023-04-15T00:55:05;8.13;;;5.68;;
2458;SDS011;1241;50.920;6.936;2023-04-15T00:57:32;6.82;;;6.10;;
2458;SDS011;1241;50.920;6.936;2023-04-15T00:59:58;7.03;;;5.37;;
2458;SDS011;1241;50.920;6.936;2023-04-15T01:02:25;7.80;;;6.50;;
2458;SDS011;1241;50.920;6.936;2023-04-15T01:04:51;8.10;;;6.15;;
2458;SDS011;1241;50.920;6.936;2023-04-15T01:07:17;6.10;;;5.50;;
2458;SDS011;1241;50.920;6.936;2023-04-15T01:09:43;8.57;;;6.35;;
2458;SDS011;1241;50.920;6.936;2023-04-15T01:12:11;8.85;;;6.50;;
2458;SDS011;1241;50.920;6.936;2023-04-15T01:14:39;7.30;;;5.90;;
2458;SDS011;1241;50.920;6.936;2023-04-15T01:17:05;7.90;;;6.35;;
2458;SDS011;1241;50.920;6.936;2023-04-15T01:19:31;8.90;;;5.97;;
2458;SDS011;1241;50.920;6.936;2023-04-15T01:21:57;8.02;;;6.15;;
2458;SDS011;1241;50.920;6.936;2023-04-15T01:24:23;8.65;;;5.85;;
2458;SDS011;1241;50.920;6.936;2023-04-15T01:26:52;7.82;;;5.85;;
2458;SDS011;1241;50.920;6.936;2023-04-15T01:29:18;8.00;;;6.23;;
2458;SDS011;1241;50.920;6.936;2023-04-15T01:31:50;7.20;;;5.25;;
2458;SDS011;1241;50.920;6.936;2023-04-15T01:34:17;8.90;;;6.32;;
2458;SDS011;1241;50.920;6.936;2023-04-15T01:36:43;10.45;;;5.93;;
2458;SDS011;1241;50.920;6.936;2023-04-15T01:39:09;6.22;;;5.63;;
2458;SDS011;1241;50.920;6.936;2023-04-15T01:41:35;6.57;;;5.78;;
2458;SDS011;1241;50.920;6.936;2023-04-15T01:44:00;8.13;;;6.40;;
2458;SDS011;1241;50.920;6.936;2023-04-15T01:46:26;8.30;;;6.10;;
2458;SDS011;1241;50.920;6.936;2023-04-15T01:48:52;7.53;;;5.80;;
2458;SDS011;1241;50.920;6.936;2023-04-15T01:51:18;11.37;;;6.60;;
2458;SDS011;1241;50.920;6.936;2023-04-15T01:53:43;7.93;;;6.03;;
2458;SDS011;1241;50.920;6.936;2023-04-15T01:56:09;8.85;;;5.78;;
2458;SDS011;1241;50.920;6.936;2023-04-15T01:58:36;7.25;;;5.55;;
2458;SDS011;1241;50.920;6.936;2023-04-15T02:01:01;6.97;;;5.70;;
2458;SDS011;1241;50.920;6.936;2023-04-15T02:03:30;8.65;;;5.97;;
2458;SDS011;1241;50.920;6.936;2023-04-15T02:05:55;8.52;;;6.15;;
2458;SDS011;1241;50.920;6.936;2023-04-15T02:08:21;6.80;;;6.20;;
2458;SDS011;1241;50.920;6.936;2023-04-15T02:10:47;7.55;;;5.70;;
2458;SDS011;1241;50.920;6.936;2023-04-15T02:13:13;9.17;;;6.20;;
2458;SDS011;1241;50.920;6.936;2023-04-15T02:15:39;6.80;;;6.00;;
2458;SDS011;1241;50.920;6.936;2023-04-15T02:18:05;8.20;;;5.40;;
2458;SDS011;1241;50.920;6.936;2023-04-15T02:20:30;7.07;;;5.90;;
2458;SDS011;1241;50.920;6.936;2023-04-15T02:22:56;7.05;;;6.40;;
2458;SDS011;1241;50.920;6.936;2023-04-15T02:25:22;7.03;;;6.32;;
2458;SDS011;1241;50.920;6.936;2023-04-15T02:27:48;5.88;;;5.47;;
2458;SDS011;1241;50.920;6.936;2023-04-15T02:30:15;7.90;;;6.10;;
2458;SDS011;1241;50.920;6.936;2023-04-15T02:32:41;8.70;;;5.90;;
2458;SDS011;1241;50.920;6.936;2023-04-15T02:35:09;6.93;;;5.90;;
2458;SDS011;1241;50.920;6.936;2023-04-15T02:37:35;6.70;;;5.72;;
2458;SDS011;1241;50.920;6.936;2023-04-15T02:40:06;7.72;;;6.50;;
2458;SDS011;1241;50.920;6.936;2023-04-15T02:42:34;8.52;;;6.10;;
2458;SDS011;1241;50.920;6.936;2023-04-15T02:45:00;7.90;;;5.88;;
2458;SDS011;1241;50.920;6.936;2023-04-15T02:47:30;7.63;;;6.50;;
2458;SDS011;1241;50.920;6.936;2023-04-15T02:49:56;8.90;;;6.30;;
2458;SDS011;1241;50.920;6.936;2023-04-15T02:52:24;6.47;;;5.88;;
2458;SDS011;1241;50.920;6.936;2023-04-15T02:54:50;7.22;;;6.20;;
2458;SDS011;1241;50.920;6.936;2023-04-15T02:57:16;9.80;;;6.00;;
2458;SDS011;1241;50.920;6.936;2023-04-15T02:59:41;9.53;;;6.00;;
2458;SDS011;1241;50.920;6.936;2023-04-15T03:02:07;7.47;;;5.20;;
2458;SDS011;1241;50.920;6.936;2023-04-15T03:04:33;7.70;;;5.60;;
2458;SDS011;1241;50.920;6.936;2023-04-15T03:06:59;7.73;;;5.43;;
2458;SDS011;1241;50.920;6.936;2023-04-15T03:09:26;7.20;;;5.80;;
2458;SDS011;1241;50.920;6.936;2023-04-15T03:11:52;7.93;;;6.40;;
2458;SDS011;1241;50.920;6.936;2023-04-15T03:14:19;7.63;;;5.50;;
2458;SDS011;1241;50.920;6.936;2023-04-15T03:16:46;6.60;;;5.85;;
2458;SDS011;1241;50.920;6.936;2023-04-15T03:19:15;7.38;;;5.43;;
2458;SDS011;1241;50.920;6.936;2023-04-15T03:21:41;8.90;;;6.18;;
2458;SDS011;1241;50.920;6.936;2023-04-15T03:24:07;7.23;;;5.97;;
2458;SDS011;1241;50.920;6.936;2023-04-15T03:26:33;6.43;;;5.82;;
2458;SDS011;1241;50.920;6.936;2023-04-15T03:29:08;6.85;;;5.28;;
2458;SDS011;1241;50.920;6.936;2023-04-15T03:31:33;6.68;;;5.63;;
2458;SDS011;1241;50.920;6.936;2023-04-15T03:33:59;6.03;;;5.43;;
2458;SDS011;1241;50.920;6.936;2023-04-15T03:36:27;8.35;;;5.90;;
2458;SDS011;1241;50.920;6.936;2023-04-15T03:38:54;7.40;;;6.38;;
2458;SDS011;1241;50.920;6.936;2023-04-15T03:41:20;6.97;;;6.28;;
2458;SDS011;1241;50.920;6.936;2023-04-15T03:43:46;8.55;;;6.35;;
2458;SDS011;1241;50.920;6.936;2023-04-15T03:46:12;7.38;;;6.05;;
2458;SDS011;1241;50.920;6.936;2023-04-15T03:48:37;6.37;;;5.77;;
2458;SDS011;1241;50.920;6.936;2023-04-15T03:51:03;7.50;;;5.87;;
2458;SDS011;1241;50.920;6.936;2023-04-15T03:53:29;6.72;;;5.65;;
2458;SDS011;1241;50.920;6.936;2023-04-15T03:55:55;6.80;;;5.73;;
2458;SDS011;1241;50.920;6.936;2023-04-15T03:58:20;8.07;;;6.40;;
2458;SDS011;1241;50.920;6.936;2023-04-15T04:00:46;8.68;;;5.82;;
2458;SDS011;1241;50.920;6.936;2023-04-15T04:03:12;6.50;;;5.90;;
2458;SDS011;1241;50.920;6.936;2023-04-15T04:05:37;9.05;;;5.70;;
2458;SDS011;1241;50.920;6.936;2023-04-15T04:08:05;7.15;;;5.80;;
2458;SDS011;1241;50.920;6.936;2023-04-15T04:10:31;6.60;;;5.90;;
2458;SDS011;1241;50.920;6.936;2023-04-15T04:12:57;6.28;;;5.30;;
2458;SDS011;1241;50.920;6.936;2023-04-15T04:15:22;6.68;;;5.97;;
2458;SDS011;1241;50.920;6.936;2023-04-15T04:17:48;6.50;;;5.80;;
2458;SDS011;1241;50.920;6.936;2023-04-15T04:20:14;6.47;;;5.72;;
2458;SDS011;1241;50.920;6.936;2023-04-15T04:22:40;5.90;;;5.30;;
2458;SDS011;1241;50.920;6.936;2023-04-15T04:25:06;7.10;;;6.40;;
2458;SDS011;1241;50.920;6.936;2023-04-15T04:27:33;9.05;;;5.90;;
2458;SDS011;1241;50.920;6.936;2023-04-15T04:29:59;6.25;;;5.20;;
2458;SDS011;1241;50.920;6.936;2023-04-15T04:32:25;6.13;;;5.13;;
2458;SDS011;1241;50.920;6.936;2023-04-15T04:34:51;7.05;;;5.88;;
2458;SDS011;1241;50.920;6.936;2023-04-15T04:37:17;6.33;;;5.73;;
2458;SDS011;1241;50.920;6.936;2023-04-15T04:39:44;6.90;;;6.20;;
2458;SDS011;1241;50.920;6.936;2023-04-15T04:42:09;7.30;;;6.60;;
2458;SDS011;1241;50.920;6.936;2023-04-15T04:44:35;5.93;;;5.30;;
2458;SDS011;1241;50.920;6.936;2023-04-15T04:47:01;7.18;;;5.70;;
2458;SDS011;1241;50.920;6.936;2023-04-15T04:49:27;8.20;;;6.07;;
2458;SDS011;1241;50.920;6.936;2023-04-15T04:51:52;7.60;;;6.40;;
2458;SDS011;1241;50.920;6.936;2023-04-15T04:54:18;7.25;;;5.70;;
2458;SDS011;1241;50.920;6.936;2023-04-15T04:56:45;7.53;;;6.10;;
2458;SDS011;1241;50.920;6.936;2023-04-15T04:59:11;7.43;;;5.80;;
2458;SDS011;1241;50.920;6.936;2023-04-15T05:01:37;7.22;;;5.32;;
2458;SDS011;1241;50.920;6.936;2023-04-15T05:04:02;7.45;;;5.82;;
2458;SDS011;1241;50.920;6.936;2023-04-15T05:06:29;7.65;;;5.65;;
2458;SDS011;1241;50.920;6.936;2023-04-15T05:08:55;7.18;;;5.97;;
2458;SDS011;1241;50.920;6.936;2023-04-15T05:11:20;6.28;;;5.32;;
2458;SDS011;1241;50.920;6.936;2023-04-15T05:13:46;5.90;;;5.30;;
2458;SDS011;1241;50.920;6.936;2023-04-15T05:16:12;7.00;;;6.30;;
2458;SDS011;1241;50.920;6.936;2023-04-15T05:18:37;8.77;;;6.20;;
2458;SDS011;1241;50.920;6.936;2023-04-15T05:21:03;7.95;;;6.40;;
2458;SDS011;1241;50.920;6.936;2023-04-15T05:23:29;7.00;;;6.30;;
2458;SDS011;1241;50.920;6.936;2023-04-15T05:25:55;7.10;;;5.95;;
2458;SDS011;1241;50.920;6.936;2023-04-15T05:28:20;7.27;;;6.57;;
2458;SDS011;1241;50.920;6.936;2023-04-15T05:30:46;9.30;;;5.80;;
2458;SDS011;1241;50.920;6.936;2023-04-15T05:33:12;6.65;;;5.95;;
2458;SDS011;1241;50.920;6.936;2023-04-15T05:35:37;7.15;;;6.03;;
2458;SDS011;1241;50.920;6.936;2023-04-15T05:38:03;6.60;;;5.80;;
2458;SDS011;1241;50.920;6.936;2023-04-15T05:40:29;7.00;;;6.30;;
2458;SDS011;1241;50.920;6.936;2023-04-15T05:42:55;7.68;;;6.20;;
2458;SDS011;1241;50.920;6.936;2023-04-15T05:45:21;7.30;;;5.88;;
2458;SDS011;1241;50.920;6.936;2023-04-15T05:47:47;7.70;;;6.20;;
2458;SDS011;1241;50.920;6.936;2023-04-15T05:50:14;6.10;;;5.60;;
2458;SDS011;1241;50.920;6.936;2023-04-15T05:52:40;7.55;;;5.90;;
2458;SDS011;1241;50.920;6.936;2023-04-15T05:55:06;7.50;;;5.60;;
2458;SDS011;1241;50.920;6.936;2023-04-15T05:57:32;7.68;;;5.97;;
2458;SDS011;1241;50.920;6.936;2023-04-15T05:59:58;6.23;;;5.73;;
2458;SDS011;1241;50.920;6.936;2023-04-15T06:02:24;6.30;;;5.70;;
2458;SDS011;1241;50.920;6.936;2023-04-15T06:04:50;8.13;;;6.50;;
2458;SDS011;1241;50.920;6.936;2023-04-15T06:07:16;8.10;;;6.43;;
2458;SDS011;1241;50.920;6.936;2023-04-15T06:09:42;7.75;;;6.13;;
2458;SDS011;1241;50.920;6.936;2023-04-15T06:12:07;6.72;;;5.88;;
2458;SDS011;1241;50.920;6.936;2023-04-15T06:14:39;7.72;;;7.00;;
2458;SDS011;1241;50.920;6.936;2023-04-15T06:17:05;8.30;;;7.28;;
2458;SDS011;1241;50.920;6.936;2023-04-15T06:19:31;8.40;;;7.13;;
2458;SDS011;1241;50.920;6.936;2023-04-15T06:21:57;7.78;;;6.97;;
2458;SDS011;1241;50.920;6.936;2023-04-15T06:24:23;8.68;;;7.20;;
2458;SDS011;1241;50.920;6.936;2023-04-15T06:26:49;7.88;;;6.82;;
2458;SDS011;1241;50.920;6.936;2023-04-15T06:29:15;7.78;;;6.80;;
2458;SDS011;1241;50.920;6.936;2023-04-15T06:31:40;10.67;;;7.30;;
2458;SDS011;1241;50.920;6.936;2023-04-15T06:34:06;7.60;;;6.90;;
2458;SDS011;1241;50.920;6.936;2023-04-15T06:36:32;7.72;;;6.63;;
2458;SDS011;1241;50.920;6.936;2023-04-15T06:38:58;9.93;;;7.30;;
2458;SDS011;1241;50.920;6.936;2023-04-15T06:41:23;8.27;;;7.35;;
2458;SDS011;1241;50.920;6.936;2023-04-15T06:43:49;9.50;;;7.17;;
2458;SDS011;1241;50.920;6.936;2023-04-15T06:46:15;9.70;;;7.07;;
2458;SDS011;1241;50.920;6.936;2023-04-15T06:48:41;8.27;;;7.00;;
2458;SDS011;1241;50.920;6.936;2023-04-15T06:51:06;7.77;;;6.97;;
2458;SDS011;1241;50.920;6.936;2023-04-15T06:53:32;9.70;;;7.53;;
2458;SDS011;1241;50.920;6.936;2023-04-15T06:55:59;9.00;;;8.10;;
2458;SDS011;1241;50.920;6.936;2023-04-15T06:58:25;9.63;;;7.70;;
2458;SDS011;1241;50.920;6.936;2023-04-15T07:00:51;8.60;;;7.23;;
2458;SDS011;1241;50.920;6.936;2023-04-15T07:03:17;8.20;;;7.40;;
2458;SDS011;1241;50.920;6.936;2023-04-15T07:05:43;9.20;;;8.10;;
2458;SDS011;1241;50.920;6.936;2023-04-15T07:08:09;7.93;;;7.13;;
2458;SDS011;1241;50.920;6.936;2023-04-15T07:10:34;9.23;;;8.27;;
2458;SDS011;1241;50.920;6.936;2023-04-15T07:13:00;9.75;;;8.27;;
2458;SDS011;1241;50.920;6.936;2023-04-15T07:15:26;9.10;;;8.10;;
2458;SDS011;1241;50.920;6.936;2023-04-15T07:17:51;8.90;;;8.00;;
2458;SDS011;1241;50.920;6.936;2023-04-15T07:20:17;9.63;;;8.63;;
2458;SDS011;1241;50.920;6.936;2023-04-15T07:22:43;10.18;;;8.70;;
2458;SDS011;1241;50.920;6.936;2023-04-15T07:25:09;9.70;;;8.65;;
2458;SDS011;1241;50.920;6.936;2023-04-15T07:27:34;9.10;;;8.30;;
2458;SDS011;1241;50.920;6.936;2023-04-15T07:30:01;11.93;;;8.90;;
2458;SDS011;1241;50.920;6.936;2023-04-15T07:32:26;10.38;;;9.40;;
2458;SDS011;1241;50.920;6.936;2023-04-15T07:34:52;10.80;;;9.40;;
2458;SDS011;1241;50.920;6.936;2023-04-15T07:37:18;10.83;;;9.77;;
2458;SDS011;1241;50.920;6.936;2023-04-15T07:39:43;10.93;;;9.13;;
2458;SDS011;1241;50.920;6.936;2023-04-15T07:42:09;10.75;;;9.65;;
2458;SDS011;1241;50.920;6.936;2023-04-15T07:44:35;11.43;;;9.50;;
2458;SDS011;1241;50.920;6.936;2023-04-15T07:47:01;10.67;;;9.20;;
2458;SDS011;1241;50.920;6.936;2023-04-15T07:49:28;9.07;;;8.17;;
2458;SDS011;1241;50.920;6.936;2023-04-15T07:51:54;9.45;;;8.55;;
2458;SDS011;1241;50.920;6.936;2023-04-15T07:54:21;9.60;;;8.60;;
2458;SDS011;1241;50.920;6.936;2023-04-15T07:56:47;8.73;;;7.93;;
2458;SDS011;1241;50.920;6.936;2023-04-15T07:59:12;9.27;;;8.38;;
2458;SDS011;1241;50.920;6.936;2023-04-15T08:01:41;9.02;;;8.23;;
2458;SDS011;1241;50.920;6.936;2023-04-15T08:04:08;9.93;;;9.02;;
2458;SDS011;1241;50.920;6.936;2023-04-15T08:06:34;9.50;;;8.48;;
2458;SDS011;1241;50.920;6.936;2023-04-15T08:09:00;10.63;;;9.55;;
2458;SDS011;1241;50.920;6.936;2023-04-15T08:11:26;9.73;;;8.73;;
2458;SDS011;1241;50.920;6.936;2023-04-15T08:13:53;10.60;;;9.50;;
2458;SDS011;1241;50.920;6.936;2023-04-15T08:18:50;10.23;;;9.23;;
2458;SDS011;1241;50.920;6.936;2023-04-15T08:21:17;9.50;;;8.60;;
2458;SDS011;1241;50.920;6.936;2023-04-15T08:23:44;9.18;;;8.27;;
2458;SDS011;1241;50.920;6.936;2023-04-15T08:26:11;7.90;;;7.20;;
2458;SDS011;1241;50.920;6.936;2023-04-15T08:28:37;7.75;;;6.93;;
2458;SDS011;1241;50.920;6.936;2023-04-15T08:31:03;6.57;;;5.97;;
2458;SDS011;1241;50.920;6.936;2023-04-15T08:33:29;7.43;;;5.30;;
2458;SDS011;1241;50.920;6.936;2023-04-15T08:35:55;4.57;;;3.30;;
2458;SDS011;1241;50.920;6.936;2023-04-15T08:38:21;4.00;;;3.70;;
2458;SDS011;1241;50.920;6.936;2023-04-15T08:40:48;3.70;;;3.13;;
2458;SDS011;1241;50.920;6.936;2023-04-15T08:43:20;3.28;;;2.97;;
2458;SDS011;1241;50.920;6.936;2023-04-15T08:45:52;4.03;;;2.30;;
2458;SDS011;1241;50.920;6.936;2023-04-15T08:48:19;3.97;;;2.70;;
2458;SDS011;1241;50.920;6.936;2023-04-15T08:50:47;4.05;;;2.78;;
2458;SDS011;1241;50.920;6.936;2023-04-15T08:53:13;4.07;;;2.78;;
2458;SDS011;1241;50.920;6.936;2023-04-15T08:55:43;3.70;;;3.20;;
2458;SDS011;1241;50.920;6.936;2023-04-15T08:58:11;3.70;;;2.60;;
2458;SDS011;1241;50.920;6.936;2023-04-15T09:00:38;3.03;;;2.70;;
2458;SDS011;1241;50.920;6.936;2023-04-15T09:03:04;3.53;;;3.20;;
2458;SDS011;1241;50.920;6.936;2023-04-15T09:05:31;3.30;;;3.00;;
2458;SDS011;1241;50.920;6.936;2023-04-15T09:07:58;4.13;;;3.08;;
2458;SDS011;1241;50.920;6.936;2023-04-15T09:10:24;3.75;;;2.90;;
2458;SDS011;1241;50.920;6.936;2023-04-15T09:12:50;3.30;;;2.97;;
2458;SDS011;1241;50.920;6.936;2023-04-15T09:15:16;4.32;;;3.15;;
2458;SDS011;1241;50.920;6.936;2023-04-15T09:17:44;3.58;;;2.80;;
2458;SDS011;1241;50.920;6.936;2023-04-15T09:20:15;3.87;;;3.40;;
2458;SDS011;1241;50.920;6.936;2023-04-15T09:22:45;3.70;;;3.30;;
2458;SDS011;1241;50.920;6.936;2023-04-15T09:27:47;4.45;;;3.13;;
2458;SDS011;1241;50.920;6.936;2023-04-15T09:30:14;3.72;;;3.05;;
2458;SDS011;1241;50.920;6.936;2023-04-15T09:32:48;2.78;;;2.58;;
2458;SDS011;1241;50.920;6.936;2023-04-15T09:35:18;5.40;;;3.03;;
2458;SDS011;1241;50.920;6.936;2023-04-15T09:37:45;4.20;;;3.47;;
2458;SDS011;1241;50.920;6.936;2023-04-15T09:40:11;4.97;;;3.42;;
2458;SDS011;1241;50.920;6.936;2023-04-15T09:42:53;4.63;;;3.50;;
2458;SDS011;1241;50.920;6.936;2023-04-15T09:45:20;3.50;;;3.20;;
2458;SDS011;1241;50.920;6.936;2023-04-15T09:47:47;5.00;;;3.58;;
2458;SDS011;1241;50.920;6.936;2023-04-15T09:50:12;3.95;;;3.55;;
2458;SDS011;1241;50.920;6.936;2023-04-15T09:52:42;4.10;;;3.50;;
2458;SDS011;1241;50.920;6.936;2023-04-15T09:55:09;4.00;;;3.60;;
2458;SDS011;1241;50.920;6.936;2023-04-15T09:57:36;3.95;;;3.60;;
2458;SDS011;1241;50.920;6.936;2023-04-15T10:00:05;4.45;;;3.65;;
2458;SDS011;1241;50.920;6.936;2023-04-15T10:02:34;5.00;;;3.50;;
2458;SDS011;1241;50.920;6.936;2023-04-15T10:05:01;3.35;;;3.03;;
2458;SDS011;1241;50.920;6.936;2023-04-15T10:07:27;3.57;;;3.27;;
2458;SDS011;1241;50.920;6.936;2023-04-15T10:09:53;3.60;;;3.30;;
2458;SDS011;1241;50.920;6.936;2023-04-15T10:12:20;3.72;;;3.38;;
2458;SDS011;1241;50.920;6.936;2023-04-15T10:14:47;5.43;;;3.90;;
2458;SDS011;1241;50.920;6.936;2023-04-15T10:17:17;3.85;;;3.55;;
2458;SDS011;1241;50.920;6.936;2023-04-15T10:19:46;4.95;;;4.45;;
2458;SDS011;1241;50.920;6.936;2023-04-15T10:22:13;6.78;;;5.20;;
2458;SDS011;1241;50.920;6.936;2023-04-15T10:24:39;5.45;;;4.95;;
2458;SDS011;1241;50.920;6.936;2023-04-15T10:27:06;5.73;;;4.67;;
2458;SDS011;1241;50.920;6.936;2023-04-15T10:29:33;5.00;;;4.60;;
2458;SDS011;1241;50.920;6.936;2023-04-15T10:31:59;5.40;;;4.90;;
2458;SDS011;1241;50.920;6.936;2023-04-15T10:34:26;5.78;;;4.93;;
2458;SDS011;1241;50.920;6.936;2023-04-15T10:37:02;4.90;;;4.50;;
2458;SDS011;1241;50.920;6.936;2023-04-15T10:39:43;5.78;;;5.18;;
2458;SDS011;1241;50.920;6.936;2023-04-15T10:42:10;4.80;;;4.40;;
2458;SDS011;1241;50.920;6.936;2023-04-15T10:44:38;5.25;;;4.75;;
2458;SDS011;1241;50.920;6.936;2023-04-15T10:47:09;5.97;;;5.38;;
2458;SDS011;1241;50.920;6.936;2023-04-15T10:49:42;5.28;;;4.60;;
2458;SDS011;1241;50.920;6.936;2023-04-15T10:52:09;5.30;;;4.80;;
2458;SDS011;1241;50.920;6.936;2023-04-15T10:54:36;4.75;;;4.30;;
2458;SDS011;1241;50.920;6.936;2023-04-15T11:00:16;4.30;;;4.00;;
2458;SDS011;1241;50.920;6.936;2023-04-15T11:02:39;4.70;;;4.30;;
2458;SDS011;1241;50.920;6.936;2023-04-15T11:05:15;3.97;;;3.67;;
2458;SDS011;1241;50.920;6.936;2023-04-15T11:12:43;4.40;;;4.10;;
2458;SDS011;1241;50.920;6.936;2023-04-15T11:20:39;5.05;;;4.75;;
2458;SDS011;1241;50.920;6.936;2023-04-15T11:23:07;5.80;;;5.40;;
2458;SDS011;1241;50.920;6.936;2023-04-15T11:25:34;5.60;;;5.20;;
2458;SDS011;1241;50.920;6.936;2023-04-15T11:28:04;5.10;;;4.70;;
2458;SDS011;1241;50.920;6.936;2023-04-15T11:30:31;4.20;;;3.92;;
2458;SDS011;1241;50.920;6.936;2023-04-15T11:32:59;5.00;;;4.60;;
2458;SDS011;1241;50.920;6.936;2023-04-15T11:35:26;5.10;;;4.70;;
2458;SDS011;1241;50.920;6.936;2023-04-15T11:37:54;4.53;;;4.18;;
2458;SDS011;1241;50.920;6.936;2023-04-15T11:40:24;5.00;;;4.68;;
2458;SDS011;1241;50.920;6.936;2023-04-15T11:43:07;5.40;;;5.00;;
2458;SDS011;1241;50.920;6.936;2023-04-15T11:45:52;4.78;;;4.38;;
2458;SDS011;1241;50.920;6.936;2023-04-15T11:48:23;5.03;;;4.45;;
2458;SDS011;1241;50.920;6.936;2023-04-15T11:51:00;4.68;;;4.32;;
2458;SDS011;1241;50.920;6.936;2023-04-15T11:53:36;5.20;;;4.70;;
2458;SDS011;1241;50.920;6.936;2023-04-15T11:56:03;4.82;;;4.43;;
2458;SDS011;1241;50.920;6.936;2023-04-15T11:58:29;4.90;;;4.50;;
2458;SDS011;1241;50.920;6.936;2023-04-15T12:00:56;4.40;;;4.10;;
2458;SDS011;1241;50.920;6.936;2023-04-15T12:03:24;5.65;;;5.25;;
2458;SDS011;1241;50.920;6.936;2023-04-15T12:11:18;6.38;;;5.97;;
2458;SDS011;1241;50.920;6.936;2023-04-15T12:13:48;6.97;;;6.47;;
2458;SDS011;1241;50.920;6.936;2023-04-15T12:16:18;8.20;;;7.60;;
2458;SDS011;1241;50.920;6.936;2023-04-15T12:18:49;8.40;;;7.70;;
2458;SDS011;1241;50.920;6.936;2023-04-15T12:21:18;8.25;;;7.75;;
2458;SDS011;1241;50.920;6.936;2023-04-15T12:23:51;8.90;;;8.20;;
2458;SDS011;1241;50.920;6.936;2023-04-15T12:26:53;9.60;;;8.90;;
2458;SDS011;1241;50.920;6.936;2023-04-15T12:29:15;9.70;;;9.05;;
2458;SDS011;1241;50.920;6.936;2023-04-15T12:31:48;10.05;;;9.25;;
2458;SDS011;1241;50.920;6.936;2023-04-15T12:34:25;9.90;;;9.20;;
2458;SDS011;1241;50.920;6.936;2023-04-15T12:36:52;8.15;;;7.55;;
2458;SDS011;1241;50.920;6.936;2023-04-15T12:39:25;8.18;;;7.57;;
2458;SDS011;1241;50.920;6.936;2023-04-15T12:41:52;8.05;;;7.45;;
2458;SDS011;1241;50.920;6.936;2023-04-15T12:44:18;8.20;;;7.60;;
2458;SDS011;1241;50.920;6.936;2023-04-15T12:46:46;8.80;;;8.10;;
2458;SDS011;1241;50.920;6.936;2023-04-15T12:49:12;8.98;;;8.38;;
2458;SDS011;1241;50.920;6.936;2023-04-15T12:51:40;8.70;;;8.00;;
2458;SDS011;1241;50.920;6.936;2023-04-15T12:54:06;9.40;;;8.70;;
2458;SDS011;1241;50.920;6.936;2023-04-15T12:56:32;8.90;;;8.20;;
2458;SDS011;1241;50.920;6.936;2023-04-15T12:58:57;8.85;;;8.15;;
2458;SDS011;1241;50.920;6.936;2023-04-15T13:01:23;9.02;;;8.30;;
2458;SDS011;1241;50.920;6.936;2023-04-15T13:03:49;8.57;;;7.80;;
2458;SDS011;1241;50.920;6.936;2023-04-15T13:06:15;7.25;;;6.70;;
2458;SDS011;1241;50.920;6.936;2023-04-15T13:08:41;6.20;;;5.70;;
2458;SDS011;1241;50.920;6.936;2023-04-15T13:11:07;6.90;;;6.40;;
2458;SDS011;1241;50.920;6.936;2023-04-15T13:13:33;6.50;;;6.00;;
2458;SDS011;1241;50.920;6.936;2023-04-15T13:15:59;7.00;;;6.40;;
2458;SDS011;1241;50.920;6.936;2023-04-15T13:18:24;6.40;;;5.90;;
2458;SDS011;1241;50.920;6.936;2023-04-15T13:20:50;6.70;;;6.10;;
2458;SDS011;1241;50.920;6.936;2023-04-15T13:23:16;6.32;;;5.82;;
2458;SDS011;1241;50.920;6.936;2023-04-15T13:25:42;6.80;;;6.20;;
2458;SDS011;1241;50.920;6.936;2023-04-15T13:28:09;6.50;;;5.90;;
2458;SDS011;1241;50.920;6.936;2023-04-15T13:30:36;7.38;;;6.57;;
2458;SDS011;1241;50.920;6.936;2023-04-15T13:33:03;6.00;;;5.50;;
2458;SDS011;1241;50.920;6.936;2023-04-15T13:35:29;5.90;;;5.40;;
2458;SDS011;1241;50.920;6.936;2023-04-15T13:37:56;5.30;;;4.80;;
2458;SDS011;1241;50.920;6.936;2023-04-15T13:40:21;5.82;;;5.22;;
2458;SDS011;1241;50.920;6.936;2023-04-15T13:42:47;6.10;;;5.60;;
2458;SDS011;1241;50.920;6.936;2023-04-15T13:45:13;5.73;;;5.33;;
2458;SDS011;1241;50.920;6.936;2023-04-15T13:47:39;6.93;;;6.33;;
2458;SDS011;1241;50.920;6.936;2023-04-15T13:50:05;8.18;;;6.90;;
2458;SDS011;1241;50.920;6.936;2023-04-15T13:52:31;6.90;;;6.32;;
2458;SDS011;1241;50.920;6.936;2023-04-15T13:54:56;8.13;;;7.43;;
2458;SDS011;1241;50.920;6.936;2023-04-15T13:57:22;7.50;;;6.90;;
2458;SDS011;1241;50.920;6.936;2023-04-15T13:59:48;6.80;;;6.20;;
2458;SDS011;1241;50.920;6.936;2023-04-15T14:02:14;6.82;;;6.22;;
2458;SDS011;1241;50.920;6.936;2023-04-15T14:04:39;6.55;;;5.95;;
2458;SDS011;1241;50.920;6.936;2023-04-15T14:07:06;6.60;;;6.00;;
2458;SDS011;1241;50.920;6.936;2023-04-15T14:09:31;6.32;;;5.78;;
2458;SDS011;1241;50.920;6.936;2023-04-15T14:11:57;6.40;;;5.80;;
2458;SDS011;1241;50.920;6.936;2023-04-15T14:14:24;6.00;;;5.47;;
2458;SDS011;1241;50.920;6.936;2023-04-15T14:16:50;6.70;;;5.28;;
2458;SDS011;1241;50.920;6.936;2023-04-15T14:19:15;6.10;;;5.50;;
2458;SDS011;1241;50.920;6.936;2023-04-15T14:21:41;6.10;;;5.60;;
2458;SDS011;1241;50.920;6.936;2023-04-15T14:24:07;5.30;;;4.90;;
2458;SDS011;1241;50.920;6.936;2023-04-15T14:26:33;4.60;;;4.20;;
2458;SDS011;1241;50.920;6.936;2023-04-15T14:28:59;5.30;;;4.80;;
2458;SDS011;1241;50.920;6.936;2023-04-15T14:31:25;5.57;;;5.05;;
2458;SDS011;1241;50.920;6.936;2023-04-15T14:33:50;5.40;;;4.90;;
2458;SDS011;1241;50.920;6.936;2023-04-15T14:36:16;5.53;;;5.03;;
2458;SDS011;1241;50.920;6.936;2023-04-15T14:38:42;6.57;;;5.97;;
2458;SDS011;1241;50.920;6.936;2023-04-15T14:41:07;6.80;;;6.20;;
2458;SDS011;1241;50.920;6.936;2023-04-15T14:43:34;7.03;;;6.47;;
2458;SDS011;1241;50.920;6.936;2023-04-15T14:46:00;9.43;;;8.73;;
2458;SDS011;1241;50.920;6.936;2023-04-15T14:48:26;8.63;;;7.93;;
2458;SDS011;1241;50.920;6.936;2023-04-15T14:50:52;10.30;;;9.40;;
2458;SDS011;1241;50.920;6.936;2023-04-15T14:53:18;9.80;;;8.90;;
2458;SDS011;1241;50.920;6.936;2023-04-15T14:55:44;10.82;;;9.70;;
2458;SDS011;1241;50.920;6.936;2023-04-15T14:58:10;11.38;;;10.20;;
2458;SDS011;1241;50.920;6.936;2023-04-15T15:00:37;11.53;;;10.37;;
2458;SDS011;1241;50.920;6.936;2023-04-15T15:03:06;10.23;;;9.32;;
2458;SDS011;1241;50.920;6.936;2023-04-15T15:05:44;8.55;;;7.75;;
2458;SDS011;1241;50.920;6.936;2023-04-15T15:08:10;7.83;;;7.13;;
2458;SDS011;1241;50.920;6.936;2023-04-15T15:10:37;7.55;;;6.85;;
2458;SDS011;1241;50.920;6.936;2023-04-15T15:13:04;9.25;;;8.23;;
2458;SDS011;1241;50.920;6.936;2023-04-15T15:15:31;10.40;;;9.40;;
2458;SDS011;1241;50.920;6.936;2023-04-15T15:17:57;11.27;;;10.23;;
2458;SDS011;1241;50.920;6.936;2023-04-15T15:20:24;13.45;;;12.05;;
2458;SDS011;1241;50.920;6.936;2023-04-15T15:22:50;13.30;;;12.00;;
2458;SDS011;1241;50.920;6.936;2023-04-15T15:25:16;16.40;;;14.90;;
2458;SDS011;1241;50.920;6.936;2023-04-15T15:27:41;16.67;;;15.07;;
2458;SDS011;1241;50.920;6.936;2023-04-15T15:30:09;15.88;;;14.55;;
2458;SDS011;1241;50.920;6.936;2023-04-15T15:32:35;16.65;;;15.15;;
2458;SDS011;1241;50.920;6.936;2023-04-15T15:35:02;17.35;;;15.85;;
2458;SDS011;1241;50.920;6.936;2023-04-15T15:37:29;14.70;;;13.40;;